Terminal Aerodrome Forecast
Issued by NWS

Home | Current Version | Previous Version | Text Only | Print | Product List | Glossary On
Versions: 1 2 3 4 5 6 7 8 9 10 11 12 13 14 15 16 17 18 19 20 21
000
FTUS43 KDTX 171922 AAA
TAFMBS
TAF AMD
KMBS 171922Z 1719/1818 28016G26KT P6SM -SHSN BKN022 OVC040
      TEMPO 1721/1724 4SM -SHSN OVC018
     FM180100 27011KT P6SM BKN035
     FM180600 29008KT P6SM BKN025
     FM181600 32007KT P6SM OVC025=

USA.gov is the U.S. government's official web portal to all federal, state and local government web resources and services.